Time;durP1;ratioP1;P1;durP2;ratioP2;P2;SDS_P1;SDS_P2;PMS_P1;PMS_P2;Temp;Humidity;BMP_temperature;BMP_pressure;BME280_temperature;BME280_humidity;BME280_pressure;Samples;Min_cycle;Max_cycle;Signal;HPM_P1;HPM_P2
2023/07/02 00:00:22;;;;;;;11.75;3.85;;;;;;;17.27;100.00;100485.28;5005646;28;20092;-62
2023/07/02 00:02:50;;;;;;;8.88;3.75;;;;;;;17.28;100.00;100471.03;5015361;28;20060;-62
2023/07/02 00:05:19;;;;;;;11.68;4.25;;;;;;;17.29;100.00;100467.38;5025630;28;20408;-62
2023/07/02 00:07:47;;;;;;;9.82;4.07;;;;;;;17.24;100.00;100470.47;5010295;28;20041;-63
2023/07/02 00:10:15;;;;;;;12.52;4.55;;;;;;;17.27;100.00;100472.00;4994659;28;20089;-62
2023/07/02 00:12:44;;;;;;;10.98;4.38;;;;;;;17.23;100.00;100468.84;4998569;28;21062;-62
2023/07/02 00:15:12;;;;;;;11.88;4.80;;;;;;;17.20;100.00;100474.44;5000725;28;20940;-61
2023/07/02 00:17:42;;;;;;;11.68;5.18;;;;;;;17.23;100.00;100470.63;4997719;28;20038;-62
2023/07/02 00:20:15;;;;;;;13.57;5.20;;;;;;;17.20;100.00;100471.78;4998125;28;20050;-62
2023/07/02 00:22:46;;;;;;;17.20;6.72;;;;;;;17.21;100.00;100468.13;4996589;28;20042;-62
2023/07/02 00:25:15;;;;;;;14.57;5.78;;;;;;;17.21;100.00;100462.81;4996974;28;20385;-63
2023/07/02 00:27:43;;;;;;;17.67;6.65;;;;;;;17.17;100.00;100464.09;4995024;28;20125;-63
2023/07/02 00:30:12;;;;;;;15.07;6.20;;;;;;;17.15;100.00;100467.91;4994557;28;20037;-63
2023/07/02 00:32:42;;;;;;;14.23;6.30;;;;;;;17.17;100.00;100465.94;4999159;28;20884;-63
2023/07/02 00:35:10;;;;;;;15.60;6.38;;;;;;;17.15;100.00;100470.56;5000586;28;20078;-63
2023/07/02 00:37:38;;;;;;;14.68;6.25;;;;;;;17.10;100.00;100454.22;4995723;28;20037;-63
2023/07/02 00:40:08;;;;;;;14.63;6.32;;;;;;;17.12;100.00;100463.72;4994818;28;20057;-63
2023/07/02 00:42:36;;;;;;;17.00;7.00;;;;;;;17.11;100.00;100463.88;5002976;28;20065;-63
2023/07/02 00:45:06;;;;;;;15.98;7.40;;;;;;;17.16;100.00;100467.75;4998332;28;20038;-62
2023/07/02 00:47:35;;;;;;;16.38;6.80;;;;;;;17.13;100.00;100473.38;4998667;28;20105;-64
2023/07/02 00:50:06;;;;;;;13.07;6.82;;;;;;;17.19;100.00;100467.47;4995607;28;20042;-62
2023/07/02 00:52:34;;;;;;;15.93;7.15;;;;;;;17.05;100.00;100487.41;4994580;28;20050;-60
2023/07/02 00:55:03;;;;;;;21.52;8.60;;;;;;;16.98;100.00;100506.78;5002088;28;20581;-60
2023/07/02 00:57:32;;;;;;;19.63;8.27;;;;;;;16.85;100.00;100512.41;4995491;28;20117;-61
2023/07/02 01:00:00;;;;;;;16.33;7.25;;;;;;;16.70;100.00;100515.56;5002344;28;20470;-60
2023/07/02 01:02:29;;;;;;;12.98;6.35;;;;;;;16.65;100.00;100525.78;4998264;28;20077;-59
2023/07/02 01:04:59;;;;;;;16.42;6.32;;;;;;;16.53;100.00;100524.31;5005617;28;20038;-59
2023/07/02 01:07:30;;;;;;;16.27;7.10;;;;;;;16.53;100.00;100529.63;4996882;28;20045;-59
2023/07/02 01:09:59;;;;;;;15.23;6.97;;;;;;;16.33;100.00;100523.53;4991425;28;20485;-60
2023/07/02 01:12:28;;;;;;;18.55;6.63;;;;;;;16.28;100.00;100518.69;5004970;28;20136;-61
2023/07/02 01:15:01;;;;;;;16.00;6.30;;;;;;;16.17;100.00;100524.13;5017896;28;20107;-61
2023/07/02 01:17:37;;;;;;;17.00;6.00;;;;;;;16.13;100.00;100522.75;5014419;28;20396;-61
2023/07/02 01:20:09;;;;;;;15.18;6.20;;;;;;;16.00;100.00;100523.91;5020616;28;20128;-61
2023/07/02 01:22:38;;;;;;;14.48;5.63;;;;;;;16.03;100.00;100528.94;5015437;28;20038;-60
2023/07/02 01:25:08;;;;;;;17.58;5.97;;;;;;;16.00;100.00;100521.25;5013016;28;20469;-61
2023/07/02 01:27:38;;;;;;;16.00;6.03;;;;;;;16.07;100.00;100526.81;5018592;28;20045;-60
2023/07/02 01:30:08;;;;;;;16.23;6.30;;;;;;;16.07;100.00;100526.00;5021297;28;20041;-61
2023/07/02 01:32:36;;;;;;;17.17;6.68;;;;;;;16.01;100.00;100520.28;5017577;28;20042;-61
2023/07/02 01:35:05;;;;;;;14.82;6.80;;;;;;;15.94;100.00;100529.81;5016171;28;20042;-61
2023/07/02 01:37:37;;;;;;;15.00;6.43;;;;;;;16.00;100.00;100531.03;5015568;28;20053;-61
2023/07/02 01:40:07;;;;;;;16.58;6.70;;;;;;;15.97;100.00;100531.34;5015558;28;20048;-61
2023/07/02 01:42:36;;;;;;;15.25;6.20;;;;;;;16.04;100.00;100535.06;5028184;28;20033;-61
2023/07/02 01:45:04;;;;;;;15.00;6.47;;;;;;;16.02;100.00;100543.19;4999211;28;20081;-61
2023/07/02 01:47:33;;;;;;;16.00;6.57;;;;;;;15.97;100.00;100540.13;5009506;28;20073;-61
2023/07/02 01:50:01;;;;;;;14.77;6.45;;;;;;;15.93;100.00;100546.69;5002779;28;20073;-60
2023/07/02 01:52:32;;;;;;;17.88;6.88;;;;;;;15.88;100.00;100548.91;5000218;28;20052;-61
2023/07/02 01:55:03;;;;;;;16.47;6.47;;;;;;;15.78;100.00;100545.41;4997647;28;20054;-61
2023/07/02 01:57:31;;;;;;;18.48;7.18;;;;;;;15.67;100.00;100549.88;5000887;28;20145;-60
2023/07/02 01:59:59;;;;;;;16.30;6.68;;;;;;;15.68;100.00;100548.91;4999111;28;20060;-61
2023/07/02 02:02:28;;;;;;;16.40;6.93;;;;;;;15.56;100.00;100547.38;5002625;28;20052;-61
2023/07/02 02:04:57;;;;;;;16.58;6.47;;;;;;;15.58;100.00;100556.03;4998688;28;20145;-61
2023/07/02 02:07:25;;;;;;;15.55;6.68;;;;;;;15.58;100.00;100545.41;5009160;28;20054;-61
2023/07/02 02:09:54;;;;;;;18.02;7.28;;;;;;;15.47;100.00;100549.03;5004566;28;20556;-61
2023/07/02 02:12:23;;;;;;;20.95;7.07;;;;;;;15.55;100.00;100558.94;4999158;28;20054;-61
2023/07/02 02:14:52;;;;;;;16.88;6.93;;;;;;;15.45;100.00;100550.19;5021007;28;20050;-61
2023/07/02 02:17:20;;;;;;;17.83;6.72;;;;;;;15.43;100.00;100554.78;5011020;28;20050;-61
2023/07/02 02:19:48;;;;;;;14.77;7.47;;;;;;;15.41;100.00;100554.09;5017441;28;20053;-62
2023/07/02 02:22:17;;;;;;;18.27;6.80;;;;;;;15.30;100.00;100555.06;5009798;28;20057;-61
2023/07/02 02:24:45;;;;;;;15.63;6.93;;;;;;;15.28;100.00;100563.09;5026706;28;20065;-61
2023/07/02 02:27:13;;;;;;;16.05;6.95;;;;;;;15.32;100.00;100561.03;5030480;28;20080;-61
2023/07/02 02:29:43;;;;;;;15.65;6.57;;;;;;;15.27;100.00;100568.53;5024162;28;20398;-61
2023/07/02 02:32:11;;;;;;;14.38;7.10;;;;;;;15.21;100.00;100565.50;5009037;28;20030;-61
2023/07/02 02:34:39;;;;;;;14.75;6.85;;;;;;;15.13;100.00;100562.66;5011367;28;20050;-61
2023/07/02 02:37:08;;;;;;;17.30;7.03;;;;;;;15.16;100.00;100559.75;5020587;28;20049;-61
2023/07/02 02:39:36;;;;;;;16.08;7.45;;;;;;;15.04;100.00;100559.03;5021834;28;20062;-61
2023/07/02 02:42:05;;;;;;;15.38;7.28;;;;;;;15.08;100.00;100556.97;5019417;28;20046;-62
2023/07/02 02:44:33;;;;;;;20.35;7.10;;;;;;;15.00;100.00;100549.69;5014768;28;20046;-61
2023/07/02 02:47:04;;;;;;;17.90;7.55;;;;;;;14.98;100.00;100554.28;5017743;28;20509;-61
2023/07/02 02:49:33;;;;;;;15.68;7.07;;;;;;;14.96;100.00;100563.34;5012004;28;20080;-61
2023/07/02 02:52:01;;;;;;;17.90;7.45;;;;;;;14.93;100.00;100560.94;5010507;28;20037;-61
2023/07/02 02:54:29;;;;;;;14.70;6.40;;;;;;;14.91;100.00;100563.72;5013862;28;20104;-61
2023/07/02 02:56:57;;;;;;;16.55;6.50;;;;;;;14.87;100.00;100564.97;5006900;28;20050;-62
2023/07/02 02:59:25;;;;;;;16.55;6.85;;;;;;;14.96;100.00;100566.00;5003140;28;20112;-62
2023/07/02 03:01:53;;;;;;;15.68;7.20;;;;;;;14.86;100.00;100568.59;4999764;28;20050;-62
2023/07/02 03:04:24;;;;;;;16.42;6.75;;;;;;;14.81;100.00;100568.19;5005978;28;20045;-61
2023/07/02 03:06:53;;;;;;;14.43;6.65;;;;;;;14.81;100.00;100573.47;5010469;28;20053;-62
2023/07/02 03:09:21;;;;;;;19.27;7.03;;;;;;;14.68;100.00;100577.19;5005666;28;20501;-61
2023/07/02 03:11:50;;;;;;;14.15;6.90;;;;;;;14.70;100.00;100574.41;5005788;28;20362;-61
2023/07/02 03:14:18;;;;;;;18.38;7.53;;;;;;;14.69;100.00;100578.84;5014978;28;20046;-61
2023/07/02 03:16:47;;;;;;;17.50;7.78;;;;;;;14.72;100.00;100580.38;5011701;28;20125;-62
2023/07/02 03:19:15;;;;;;;16.95;6.75;;;;;;;14.70;100.00;100582.34;5016339;28;20055;-59
2023/07/02 03:21:45;;;;;;;17.30;7.50;;;;;;;14.68;100.00;100579.84;5010612;28;20041;-60
2023/07/02 03:24:14;;;;;;;14.15;6.68;;;;;;;14.74;100.00;100586.41;5014175;28;20050;-59
2023/07/02 03:26:42;;;;;;;18.08;7.20;;;;;;;14.72;100.00;100603.38;5027496;28;20045;-60
2023/07/02 03:29:11;;;;;;;15.48;6.80;;;;;;;14.73;100.00;100602.41;5020948;28;20820;-59
2023/07/02 03:31:39;;;;;;;14.30;7.25;;;;;;;14.73;100.00;100605.88;5010016;28;20041;-59
2023/07/02 03:34:09;;;;;;;13.05;7.10;;;;;;;14.73;100.00;100605.06;5017807;28;20072;-59
2023/07/02 03:36:37;;;;;;;16.42;7.00;;;;;;;14.69;100.00;100604.47;5008133;28;20050;-61
2023/07/02 03:39:06;;;;;;;18.65;6.70;;;;;;;14.68;100.00;100613.38;5020439;28;20038;-60
2023/07/02 03:41:37;;;;;;;16.58;7.68;;;;;;;14.68;100.00;100611.59;5019680;28;20076;-60
2023/07/02 03:44:06;;;;;;;14.48;6.88;;;;;;;14.59;100.00;100615.00;5014387;28;20081;-61
2023/07/02 03:46:34;;;;;;;15.13;7.03;;;;;;;14.68;100.00;100606.31;5018184;28;20042;-61
2023/07/02 03:49:03;;;;;;;15.95;6.85;;;;;;;14.61;100.00;100617.50;5020579;28;20064;-61
2023/07/02 03:51:32;;;;;;;15.25;6.68;;;;;;;14.58;100.00;100613.31;5026575;28;20127;-61
2023/07/02 03:54:00;;;;;;;22.77;7.70;;;;;;;14.59;100.00;100614.13;5016048;28;20029;-62
2023/07/02 03:56:29;;;;;;;16.10;7.10;;;;;;;14.58;100.00;100610.66;5025463;28;20104;-64
2023/07/02 03:58:58;;;;;;;15.57;6.88;;;;;;;14.62;100.00;100617.38;5007375;28;20068;-63
2023/07/02 04:01:26;;;;;;;18.85;7.18;;;;;;;14.54;100.00;100618.00;4998392;28;20045;-63
2023/07/02 04:03:56;;;;;;;16.80;6.97;;;;;;;14.50;100.00;100626.34;5018108;28;20508;-64
2023/07/02 04:06:25;;;;;;;15.00;7.47;;;;;;;14.47;100.00;100621.34;4999294;28;20046;-63
2023/07/02 04:08:53;;;;;;;17.17;7.07;;;;;;;14.50;100.00;100624.53;4996396;28;20046;-63
2023/07/02 04:11:21;;;;;;;18.15;7.63;;;;;;;14.52;100.00;100630.56;5005468;28;20507;-63
2023/07/02 04:13:50;;;;;;;18.65;6.85;;;;;;;14.58;100.00;100623.91;4998643;28;20564;-62
2023/07/02 04:16:19;;;;;;;17.52;7.13;;;;;;;14.58;100.00;100625.72;4997487;28;20594;-63
2023/07/02 04:18:47;;;;;;;20.55;7.05;;;;;;;14.54;100.00;100627.78;5016775;28;20057;-63
2023/07/02 04:21:15;;;;;;;16.70;6.72;;;;;;;14.50;100.00;100629.00;5016158;28;20045;-63
2023/07/02 04:23:43;;;;;;;17.10;6.82;;;;;;;14.57;100.00;100635.44;5011644;28;20152;-60
2023/07/02 04:26:12;;;;;;;18.75;6.57;;;;;;;14.50;100.00;100640.41;5003841;28;20041;-63
2023/07/02 04:29:02;;;;;;;16.15;6.38;;;;;;;14.52;100.00;100637.66;5017079;28;20071;-64
2023/07/02 04:31:30;;;;;;;17.50;7.00;;;;;;;14.57;100.00;100632.78;5006206;28;20785;-64
2023/07/02 04:33:59;;;;;;;15.55;6.68;;;;;;;14.58;100.00;100638.94;5013870;28;20119;-64
2023/07/02 04:36:28;;;;;;;19.55;7.18;;;;;;;14.57;100.00;100645.19;5020599;28;20057;-63
2023/07/02 04:38:56;;;;;;;18.38;6.82;;;;;;;14.57;100.00;100643.38;5008005;28;20137;-63
2023/07/02 04:41:24;;;;;;;14.90;6.57;;;;;;;14.55;100.00;100645.34;5008049;28;20133;-63
2023/07/02 04:43:52;;;;;;;18.00;6.40;;;;;;;14.62;100.00;100651.78;5008069;28;20050;-63
2023/07/02 04:46:22;;;;;;;17.65;6.97;;;;;;;14.55;100.00;100653.28;5007520;28;20046;-63
2023/07/02 04:48:53;;;;;;;17.50;7.05;;;;;;;14.61;100.00;100651.91;5008134;28;20579;-63
2023/07/02 04:51:22;;;;;;;14.80;7.22;;;;;;;14.60;100.00;100652.88;5008167;28;20046;-63
2023/07/02 04:53:50;;;;;;;21.60;7.82;;;;;;;14.68;100.00;100659.22;5008835;28;20038;-63
2023/07/02 04:56:18;;;;;;;17.08;6.53;;;;;;;14.66;100.00;100655.03;5010181;28;20045;-63
2023/07/02 04:58:46;;;;;;;24.15;7.97;;;;;;;14.69;100.00;100652.13;5012278;28;20588;-63
2023/07/02 05:01:14;;;;;;;18.23;7.03;;;;;;;14.73;100.00;100658.00;5010018;28;20042;-64
2023/07/02 05:03:44;;;;;;;17.50;7.57;;;;;;;14.76;100.00;100652.44;5017019;28;20506;-64
2023/07/02 05:06:12;;;;;;;20.52;7.95;;;;;;;14.77;100.00;100654.94;5015987;28;20404;-64
2023/07/02 05:08:40;;;;;;;15.95;6.90;;;;;;;14.76;100.00;100665.66;5011862;28;20050;-64
2023/07/02 05:11:10;;;;;;;19.00;7.03;;;;;;;14.89;100.00;100661.00;5008497;28;20072;-64
2023/07/02 05:13:38;;;;;;;19.80;6.75;;;;;;;14.95;100.00;100663.09;5016599;28;20099;-64
2023/07/02 05:16:06;;;;;;;19.33;7.65;;;;;;;14.96;100.00;100666.59;5005758;28;20058;-64
2023/07/02 05:18:34;;;;;;;21.52;7.65;;;;;;;14.97;100.00;100671.78;5003912;28;20108;-64
2023/07/02 05:21:04;;;;;;;17.15;7.47;;;;;;;14.98;100.00;100670.81;5010200;28;20125;-64
2023/07/02 05:23:32;;;;;;;20.38;8.20;;;;;;;15.01;100.00;100670.53;5009436;28;20894;-64
2023/07/02 05:26:00;;;;;;;19.02;7.63;;;;;;;15.10;100.00;100673.34;5022713;28;20488;-64
2023/07/02 05:28:28;;;;;;;15.95;7.25;;;;;;;15.16;100.00;100675.44;5011894;28;20096;-64
2023/07/02 05:30:57;;;;;;;19.55;7.75;;;;;;;15.21;100.00;100678.53;5015769;28;20073;-64
2023/07/02 05:33:25;;;;;;;19.75;8.32;;;;;;;15.22;100.00;100685.53;5010162;28;20071;-63
2023/07/02 05:35:55;;;;;;;19.42;7.82;;;;;;;15.26;100.00;100680.81;5015082;28;20111;-64
2023/07/02 05:38:25;;;;;;;20.45;8.05;;;;;;;15.43;100.00;100682.78;5015704;28;20505;-63
2023/07/02 05:40:54;;;;;;;23.80;7.82;;;;;;;15.52;100.00;100678.50;5011079;28;20069;-64
2023/07/02 05:43:24;;;;;;;23.48;8.32;;;;;;;15.53;100.00;100685.47;5013225;28;20046;-63
2023/07/02 05:45:55;;;;;;;18.83;7.60;;;;;;;15.60;100.00;100691.03;5021160;28;20050;-64
2023/07/02 05:48:24;;;;;;;23.73;7.75;;;;;;;15.66;100.00;100695.81;5007883;28;20523;-59
2023/07/02 05:50:52;;;;;;;22.42;7.97;;;;;;;15.70;100.00;100687.44;5008459;28;20061;-64
2023/07/02 05:53:20;;;;;;;24.83;8.52;;;;;;;15.79;100.00;100701.72;5008450;28;20127;-63
2023/07/02 05:55:50;;;;;;;22.70;7.70;;;;;;;15.93;100.00;100704.97;5011657;28;20053;-59
2023/07/02 05:58:18;;;;;;;20.52;7.57;;;;;;;15.98;100.00;100692.97;5012211;28;20046;-64
2023/07/02 06:00:49;;;;;;;25.15;8.27;;;;;;;16.10;100.00;100698.13;5022728;28;20041;-63
2023/07/02 06:03:20;;;;;;;21.05;7.78;;;;;;;16.17;100.00;100705.41;5018238;28;20045;-63
2023/07/02 06:05:49;;;;;;;19.60;7.13;;;;;;;16.27;100.00;100709.88;5020809;28;20051;-64
2023/07/02 06:08:18;;;;;;;20.98;7.95;;;;;;;16.36;100.00;100709.84;5011290;28;20153;-64
2023/07/02 06:10:47;;;;;;;20.30;7.22;;;;;;;16.49;100.00;100717.50;5011132;28;20148;-59
2023/07/02 06:13:17;;;;;;;16.38;6.78;;;;;;;16.49;100.00;100706.06;5010032;28;20045;-59
2023/07/02 06:15:46;;;;;;;23.65;7.50;;;;;;;16.55;100.00;100703.69;5010418;28;20054;-60
2023/07/02 06:18:16;;;;;;;20.38;7.93;;;;;;;16.62;100.00;100709.25;5009475;28;20131;-60
2023/07/02 06:20:44;;;;;;;22.05;7.22;;;;;;;16.68;100.00;100716.63;5013186;28;20452;-61
2023/07/02 06:23:13;;;;;;;19.55;6.90;;;;;;;16.83;100.00;100721.50;5015822;28;20041;-60
2023/07/02 06:25:41;;;;;;;18.23;6.00;;;;;;;16.91;100.00;100716.34;5020906;28;20042;-60
2023/07/02 06:28:10;;;;;;;18.38;6.43;;;;;;;16.96;100.00;100727.38;5017153;28;20066;-60
2023/07/02 06:30:40;;;;;;;22.13;7.00;;;;;;;17.10;100.00;100736.69;5026199;28;20060;-63
2023/07/02 06:33:08;;;;;;;19.38;6.32;;;;;;;17.12;100.00;100736.56;5016494;28;20125;-61
2023/07/02 06:35:36;;;;;;;23.40;7.07;;;;;;;17.26;100.00;100727.25;5010601;28;20053;-61
2023/07/02 06:38:04;;;;;;;18.42;6.75;;;;;;;17.35;100.00;100735.19;5009971;28;20065;-60
2023/07/02 06:40:33;;;;;;;18.85;6.93;;;;;;;17.50;100.00;100740.84;5010605;28;20509;-60
2023/07/02 06:43:01;;;;;;;18.77;6.40;;;;;;;17.60;100.00;100737.31;5009754;28;20050;-61
2023/07/02 06:45:32;;;;;;;19.38;7.00;;;;;;;17.56;100.00;100734.09;5010286;28;20409;-60
2023/07/02 06:48:04;;;;;;;19.52;7.10;;;;;;;17.72;100.00;100746.75;5008909;28;20100;-60
2023/07/02 06:50:32;;;;;;;18.58;6.47;;;;;;;17.69;100.00;100745.22;5009998;28;20107;-60
2023/07/02 06:53:00;;;;;;;19.08;6.93;;;;;;;17.73;100.00;100751.94;5009422;28;20034;-60
2023/07/02 06:55:29;;;;;;;16.33;6.40;;;;;;;17.86;100.00;100754.25;5010304;28;20045;-61
2023/07/02 06:57:57;;;;;;;18.38;6.28;;;;;;;17.97;100.00;100758.56;5009653;28;20080;-61
2023/07/02 07:00:25;;;;;;;20.27;6.65;;;;;;;17.87;100.00;100752.41;5016843;28;20405;-60
2023/07/02 07:02:53;;;;;;;23.63;6.90;;;;;;;18.00;100.00;100768.88;5022394;28;20128;-59
2023/07/02 07:05:23;;;;;;;16.15;6.35;;;;;;;18.02;100.00;100771.38;5019845;28;20068;-61
2023/07/02 07:07:51;;;;;;;17.10;5.88;;;;;;;18.08;100.00;100765.47;5013110;28;20535;-63
2023/07/02 07:10:20;;;;;;;15.88;6.63;;;;;;;18.20;100.00;100774.06;5011247;28;20038;-61
2023/07/02 07:12:48;;;;;;;19.13;6.82;;;;;;;18.36;100.00;100782.19;5017029;28;20072;-58
2023/07/02 07:15:16;;;;;;;20.98;6.95;;;;;;;18.36;100.00;100779.53;5016540;28;20408;-58
2023/07/02 07:17:44;;;;;;;18.30;5.68;;;;;;;18.41;100.00;100777.25;5011052;28;20671;-59
2023/07/02 07:20:13;;;;;;;13.50;5.43;;;;;;;18.34;100.00;100784.19;5008848;28;20056;-59
2023/07/02 07:22:43;;;;;;;17.30;5.82;;;;;;;18.51;100.00;100793.13;5008774;28;20054;-58
2023/07/02 07:25:11;;;;;;;14.85;5.60;;;;;;;18.65;100.00;100788.25;5014594;28;20063;-60
2023/07/02 07:27:39;;;;;;;16.92;5.75;;;;;;;18.82;100.00;100794.56;5009169;28;20559;-60
2023/07/02 07:30:08;;;;;;;18.80;5.60;;;;;;;18.77;100.00;100794.19;5011901;28;20045;-60
2023/07/02 07:32:36;;;;;;;18.20;6.50;;;;;;;18.90;100.00;100794.66;5020555;28;20053;-59
2023/07/02 07:35:05;;;;;;;17.10;6.13;;;;;;;19.11;100.00;100796.94;5021664;28;20065;-59
2023/07/02 07:37:33;;;;;;;15.68;5.22;;;;;;;19.21;100.00;100805.69;5019395;28;20042;-60
2023/07/02 07:40:03;;;;;;;14.02;5.60;;;;;;;19.51;100.00;100795.53;5015616;28;20114;-60
2023/07/02 07:42:34;;;;;;;15.32;6.07;;;;;;;19.57;100.00;100812.72;5015361;28;20382;-60
2023/07/02 07:45:03;;;;;;;15.30;5.72;;;;;;;19.90;100.00;100805.69;5012469;28;20836;-59
2023/07/02 07:47:31;;;;;;;15.95;5.40;;;;;;;19.90;100.00;100795.00;5022967;28;20116;-59
2023/07/02 07:50:00;;;;;;;15.13;5.30;;;;;;;19.90;100.00;100797.69;5008790;28;20493;-58
2023/07/02 07:52:28;;;;;;;13.85;5.70;;;;;;;20.06;100.00;100802.22;5007198;28;20472;-59
2023/07/02 07:54:56;;;;;;;14.88;6.18;;;;;;;20.17;100.00;100797.59;5009344;28;20080;-59
2023/07/02 07:57:26;;;;;;;15.15;5.18;;;;;;;20.17;100.00;100794.94;5008884;28;20115;-58
2023/07/02 07:59:54;;;;;;;13.70;5.43;;;;;;;20.53;100.00;100794.63;5018511;28;20519;-59
2023/07/02 08:02:24;;;;;;;16.27;5.30;;;;;;;20.52;100.00;100803.63;5009856;28;20042;-61
2023/07/02 08:04:53;;;;;;;13.68;5.82;;;;;;;20.53;100.00;100803.47;5020546;28;20049;-61
2023/07/02 08:07:21;;;;;;;13.35;6.03;;;;;;;20.46;100.00;100809.66;5011870;28;20060;-59
2023/07/02 08:09:49;;;;;;;12.73;5.88;;;;;;;20.66;100.00;100794.94;5023583;28;20053;-59
2023/07/02 08:12:18;;;;;;;14.60;5.90;;;;;;;20.89;100.00;100791.63;5011689;28;20064;-57
2023/07/02 08:14:47;;;;;;;15.25;6.05;;;;;;;20.91;100.00;100794.97;5025001;28;20056;-59
2023/07/02 08:17:16;;;;;;;15.38;5.40;;;;;;;21.03;100.00;100800.81;5021787;28;20050;-58
2023/07/02 08:19:44;;;;;;;14.45;5.72;;;;;;;21.21;100.00;100814.78;5010834;28;20041;-57
2023/07/02 08:22:13;;;;;;;13.57;5.25;;;;;;;21.49;100.00;100809.03;5021824;28;20556;-56
2023/07/02 08:24:41;;;;;;;12.30;4.90;;;;;;;21.44;99.93;100800.69;5012049;28;20042;-57
2023/07/02 08:27:13;;;;;;;11.93;5.03;;;;;;;21.69;100.00;100804.16;5007771;28;20597;-57
2023/07/02 08:29:42;;;;;;;13.15;5.45;;;;;;;21.78;100.00;100805.75;5008253;28;20038;-57
2023/07/02 08:32:11;;;;;;;13.75;4.95;;;;;;;21.60;99.67;100821.25;5006628;28;20050;-57
2023/07/02 08:34:39;;;;;;;12.70;5.50;;;;;;;21.39;100.00;100817.28;5008199;28;20044;-58
2023/07/02 08:37:08;;;;;;;13.50;5.03;;;;;;;21.38;100.00;100828.16;5007673;28;20038;-58
2023/07/02 08:39:37;;;;;;;13.57;5.22;;;;;;;21.45;100.00;100819.25;5008499;28;20054;-57
2023/07/02 08:42:06;;;;;;;12.85;5.72;;;;;;;21.57;98.57;100818.91;5008155;28;20047;-57
2023/07/02 08:44:35;;;;;;;14.27;5.03;;;;;;;21.61;98.27;100821.06;5008395;28;20050;-60
2023/07/02 08:47:04;;;;;;;13.43;5.93;;;;;;;21.35;98.03;100837.34;5007678;28;20156;-60
2023/07/02 08:49:34;;;;;;;12.05;5.38;;;;;;;21.23;92.17;100831.50;5008223;28;20096;-61
2023/07/02 08:52:02;;;;;;;11.52;4.70;;;;;;;21.38;92.51;100823.63;5006969;28;20077;-60
2023/07/02 08:54:30;;;;;;;13.15;6.30;;;;;;;21.63;91.36;100836.13;5007633;28;20890;-59
2023/07/02 08:57:00;;;;;;;14.55;5.57;;;;;;;21.71;88.85;100836.09;5008081;28;20149;-59
2023/07/02 08:59:28;;;;;;;11.18;4.53;;;;;;;21.67;88.11;100843.63;5007865;28;20050;-59
2023/07/02 09:01:56;;;;;;;14.38;5.43;;;;;;;21.35;87.98;100837.34;5007441;28;20038;-59
2023/07/02 09:04:26;;;;;;;11.52;5.30;;;;;;;21.11;87.01;100840.88;5008247;28;20401;-61
2023/07/02 09:07:06;;;;;;;13.77;4.82;;;;;;;21.54;88.02;100836.16;5007671;28;20033;-60
2023/07/02 09:09:46;;;;;;;13.48;5.25;;;;;;;21.85;87.65;100826.50;5008584;28;20146;-60
2023/07/02 09:12:24;;;;;;;14.15;5.13;;;;;;;22.25;86.46;100838.81;5007837;28;20046;-59
2023/07/02 09:14:57;;;;;;;11.07;4.55;;;;;;;22.02;75.70;100832.56;5007396;28;20057;-60
2023/07/02 09:17:30;;;;;;;13.60;5.15;;;;;;;21.57;74.89;100826.94;5007767;28;20052;-59
2023/07/02 09:20:00;;;;;;;13.90;4.90;;;;;;;21.70;76.37;100840.59;5008261;28;20066;-59
2023/07/02 09:22:30;;;;;;;11.35;4.82;;;;;;;21.91;77.39;100837.34;5007180;28;20034;-59
2023/07/02 09:25:01;;;;;;;11.13;4.97;;;;;;;21.85;76.27;100829.97;5008180;28;20041;-60
2023/07/02 09:27:36;;;;;;;13.30;4.53;;;;;;;21.99;72.83;100844.50;5010787;28;20052;-59
2023/07/02 09:30:09;;;;;;;11.05;4.65;;;;;;;22.44;71.23;100831.34;5007501;28;20057;-60
2023/07/02 09:32:40;;;;;;;10.95;4.45;;;;;;;22.87;73.93;100830.84;5009629;28;20085;-60
2023/07/02 09:35:09;;;;;;;12.20;4.60;;;;;;;22.61;64.42;100818.69;5006258;28;20076;-60
2023/07/02 09:37:40;;;;;;;11.65;4.30;;;;;;;22.33;65.32;100839.78;5007474;28;20054;-58
2023/07/02 09:40:09;;;;;;;12.48;4.53;;;;;;;22.25;68.81;100829.94;5009721;28;20065;-60
2023/07/02 09:42:40;;;;;;;11.80;4.63;;;;;;;22.17;69.68;100836.19;5009731;28;20041;-58
2023/07/02 09:45:10;;;;;;;13.90;4.88;;;;;;;22.55;70.93;100849.72;5011398;28;20053;-58
2023/07/02 09:47:45;;;;;;;13.35;4.43;;;;;;;22.91;68.55;100837.53;5015110;28;20041;-58
2023/07/02 09:50:15;;;;;;;12.95;4.85;;;;;;;22.58;69.05;100832.44;5014853;28;20053;-61
2023/07/02 09:52:49;;;;;;;11.80;4.50;;;;;;;22.57;65.42;100844.16;5011124;28;20050;-59
2023/07/02 09:55:17;;;;;;;10.32;4.22;;;;;;;22.22;62.12;100833.81;5011176;28;20045;-59
2023/07/02 09:57:46;;;;;;;11.80;4.40;;;;;;;22.10;63.47;100838.75;5013019;28;20112;-59
2023/07/02 10:00:15;;;;;;;8.95;4.05;;;;;;;22.47;60.72;100840.88;5010692;28;20412;-58
2023/07/02 10:02:49;;;;;;;9.55;3.67;;;;;;;22.74;59.19;100837.66;5013499;28;20046;-59
2023/07/02 10:05:26;;;;;;;10.32;4.47;;;;;;;22.86;62.56;100838.03;5013745;28;20401;-58
2023/07/02 10:07:57;;;;;;;9.40;4.45;;;;;;;23.45;63.15;100847.22;5012652;28;20096;-59
2023/07/02 10:10:30;;;;;;;10.82;3.80;;;;;;;23.39;57.80;100845.28;5012357;28;20068;-60
2023/07/02 10:12:59;;;;;;;10.48;4.18;;;;;;;22.93;57.67;100846.19;5023073;28;20037;-59
2023/07/02 10:15:28;;;;;;;10.77;3.92;;;;;;;22.36;57.41;100851.00;5018587;28;20050;-60
2023/07/02 10:17:56;;;;;;;11.93;4.05;;;;;;;21.90;58.81;100866.97;5016124;28;20052;-59
2023/07/02 10:20:36;;;;;;;9.63;3.97;;;;;;;22.10;59.21;100849.44;5018251;28;20052;-60
2023/07/02 10:23:06;;;;;;;11.07;3.50;;;;;;;22.07;58.55;100857.84;5024765;28;20397;-59
2023/07/02 10:25:37;;;;;;;10.32;3.83;;;;;;;22.48;61.04;100858.63;5023123;28;20053;-59
2023/07/02 10:28:15;;;;;;;9.70;3.92;;;;;;;22.86;58.26;100850.63;5019055;28;20120;-60
2023/07/02 10:30:44;;;;;;;10.63;3.47;;;;;;;22.69;55.56;100856.13;5017055;28;20500;-61
2023/07/02 10:33:13;;;;;;;9.35;3.90;;;;;;;23.12;57.88;100859.16;5013367;28;20069;-62
2023/07/02 10:35:44;;;;;;;9.93;4.13;;;;;;;23.31;57.18;100856.13;5010303;28;20046;-60
2023/07/02 10:38:16;;;;;;;10.82;3.88;;;;;;;23.78;56.55;100853.06;5008118;28;20679;-60
2023/07/02 10:40:44;;;;;;;9.50;3.90;;;;;;;23.93;56.36;100852.25;5009979;28;20045;-59
2023/07/02 10:43:24;;;;;;;10.18;4.00;;;;;;;24.29;56.75;100841.47;5011727;28;20467;-59
2023/07/02 10:46:00;;;;;;;11.75;3.83;;;;;;;24.69;53.46;100851.84;5009916;28;20129;-58
2023/07/02 10:48:29;;;;;;;9.45;3.58;;;;;;;24.33;52.53;100851.84;5011955;28;20050;-59
2023/07/02 10:50:58;;;;;;;10.52;3.72;;;;;;;23.96;50.46;100851.84;5009932;28;20054;-59
2023/07/02 10:53:27;;;;;;;8.93;4.20;;;;;;;23.89;52.97;100873.25;5008696;28;20136;-60
2023/07/02 10:55:56;;;;;;;9.50;3.83;;;;;;;23.70;51.36;100853.16;5009986;28;20042;-61
2023/07/02 10:58:26;;;;;;;9.10;3.95;;;;;;;23.95;51.86;100860.94;5009225;28;20128;-61
2023/07/02 11:00:54;;;;;;;10.38;4.15;;;;;;;23.51;52.26;100859.91;5009606;28;20417;-63
2023/07/02 11:03:25;;;;;;;9.52;3.75;;;;;;;24.04;52.10;100862.50;5008459;28;20128;-59
2023/07/02 11:05:54;;;;;;;9.35;3.60;;;;;;;24.01;50.09;100865.56;5009600;28;20454;-60
2023/07/02 11:08:24;;;;;;;10.85;4.20;;;;;;;24.27;53.15;100858.84;5002486;28;20129;-60
2023/07/02 11:11:05;;;;;;;10.88;3.63;;;;;;;23.88;51.35;100865.34;5012333;28;20275;-59
2023/07/02 11:13:35;;;;;;;8.88;3.88;;;;;;;24.05;50.44;100864.16;5012835;28;20050;-60
2023/07/02 11:16:03;;;;;;;9.48;4.10;;;;;;;24.29;49.24;100870.19;5011912;28;20050;-59
2023/07/02 11:18:32;;;;;;;8.00;3.35;;;;;;;23.93;50.46;100862.97;5008920;28;20127;-60
2023/07/02 11:21:10;;;;;;;7.90;3.70;;;;;;;24.10;53.16;100877.84;5009740;28;20046;-60